Time;durP1;ratioP1;P1;durP2;ratioP2;P2;SDS_P1;SDS_P2;PMS_P1;PMS_P2;Temp;Humidity;BMP_temperature;BMP_pressure;BME280_temperature;BME280_humidity;BME280_pressure;Samples;Min_cycle;Max_cycle;Signal;HPM_P1;HPM_P2
2023/06/03 00:00:13;;;;;;;5.05;2.33;;;11.90;99.90;;;;;;5113103;28;20047;-63
2023/06/03 00:02:40;;;;;;;7.05;2.60;;;11.90;99.90;;;;;;5111637;28;20039;-63
2023/06/03 00:05:06;;;;;;;4.80;2.22;;;11.90;99.90;;;;;;5112488;28;20082;-63
2023/06/03 00:07:32;;;;;;;6.85;2.85;;;11.80;99.90;;;;;;5111582;28;20054;-63
2023/06/03 00:09:58;;;;;;;7.18;3.00;;;11.80;99.90;;;;;;5111512;28;20430;-63
2023/06/03 00:12:24;;;;;;;11.40;4.20;;;11.80;99.90;;;;;;5110681;28;20101;-63
2023/06/03 00:14:50;;;;;;;6.30;3.65;;;11.80;99.90;;;;;;5112527;28;20485;-63
2023/06/03 00:17:15;;;;;;;6.15;4.20;;;11.80;99.90;;;;;;5112600;28;20377;-63
2023/06/03 00:19:42;;;;;;;7.18;3.67;;;11.80;99.90;;;;;;5110582;28;20048;-63
2023/06/03 00:22:08;;;;;;;6.20;3.58;;;11.80;99.90;;;;;;5111354;28;20036;-63
2023/06/03 00:24:34;;;;;;;11.10;3.90;;;11.70;99.90;;;;;;5112875;28;20040;-63
2023/06/03 00:27:00;;;;;;;7.00;3.78;;;11.70;99.90;;;;;;5110527;28;20064;-63
2023/06/03 00:29:26;;;;;;;7.97;3.55;;;11.70;99.90;;;;;;5094284;28;20043;-63
2023/06/03 00:31:52;;;;;;;7.88;4.25;;;11.70;99.90;;;;;;5111807;28;20035;-63
2023/06/03 00:34:18;;;;;;;8.07;3.55;;;11.70;99.90;;;;;;5112620;28;20036;-63
2023/06/03 00:36:44;;;;;;;7.68;3.63;;;11.60;99.90;;;;;;5112146;28;20043;-63
2023/06/03 00:39:10;;;;;;;6.68;3.03;;;11.60;99.90;;;;;;5111424;28;20035;-63
2023/06/03 00:41:36;;;;;;;6.78;3.13;;;11.60;99.90;;;;;;5111731;28;20118;-63
2023/06/03 00:44:02;;;;;;;8.13;3.65;;;11.60;99.90;;;;;;5110953;28;20563;-63
2023/06/03 00:46:32;;;;;;;7.15;3.90;;;11.50;99.90;;;;;;5110078;28;20496;-63
2023/06/03 00:48:58;;;;;;;7.43;4.32;;;11.50;99.90;;;;;;5112389;28;20079;-63
2023/06/03 00:51:24;;;;;;;8.60;5.03;;;11.50;99.90;;;;;;5112207;28;20044;-63
2023/06/03 00:53:50;;;;;;;9.57;4.85;;;11.40;99.90;;;;;;5111420;28;20097;-63
2023/06/03 00:56:19;;;;;;;8.25;5.43;;;11.30;99.90;;;;;;5110995;28;20450;-63
2023/06/03 00:58:45;;;;;;;8.43;4.05;;;11.40;99.90;;;;;;5112293;28;20404;-63
2023/06/03 01:01:13;;;;;;;6.80;3.53;;;11.30;99.90;;;;;;5109991;28;20048;-63
2023/06/03 01:03:42;;;;;;;6.32;3.35;;;11.30;99.90;;;;;;5110702;28;20051;-63
2023/06/03 01:06:27;;;;;;;6.47;2.78;;;11.20;99.90;;;;;;5094262;28;20035;-64
2023/06/03 01:09:22;;;;;;;5.90;2.63;;;11.20;99.90;;;;;;5092927;28;20078;-63
2023/06/03 01:12:15;;;;;;;8.38;3.38;;;11.20;99.90;;;;;;5072792;28;20493;-63
2023/06/03 01:14:50;;;;;;;7.43;2.17;;;11.20;99.90;;;;;;5089049;28;20075;-63
2023/06/03 01:17:18;;;;;;;7.40;2.00;;;11.10;99.90;;;;;;5090461;28;20047;-63
2023/06/03 01:19:50;;;;;;;5.93;2.70;;;11.10;99.90;;;;;;5091660;28;20115;-63
2023/06/03 01:22:18;;;;;;;5.53;2.63;;;11.10;99.90;;;;;;5089537;28;20036;-63
2023/06/03 01:24:45;;;;;;;6.75;2.95;;;11.10;99.90;;;;;;5091591;28;20040;-63
2023/06/03 01:27:12;;;;;;;7.45;3.25;;;11.00;99.90;;;;;;5091451;28;20032;-63
2023/06/03 01:29:40;;;;;;;9.07;4.20;;;11.00;99.90;;;;;;5090772;28;20063;-63
2023/06/03 01:32:17;;;;;;;7.03;3.95;;;11.00;99.90;;;;;;5090796;28;20434;-63
2023/06/03 01:34:43;;;;;;;9.40;3.85;;;11.00;99.90;;;;;;5093185;28;20111;-63
2023/06/03 01:37:10;;;;;;;5.88;2.80;;;11.00;99.90;;;;;;5094407;28;20039;-63
2023/06/03 01:39:40;;;;;;;5.35;2.15;;;11.00;99.90;;;;;;5095306;28;20044;-63
2023/06/03 01:42:10;;;;;;;5.72;2.28;;;11.00;99.90;;;;;;5076930;28;20073;-63
2023/06/03 01:44:37;;;;;;;7.15;1.92;;;11.00;99.90;;;;;;5094116;28;20044;-63
2023/06/03 01:47:04;;;;;;;3.70;1.70;;;11.00;99.90;;;;;;5095478;28;20417;-63
2023/06/03 01:49:31;;;;;;;5.32;2.00;;;11.00;99.90;;;;;;5094354;28;20133;-63
2023/06/03 01:52:00;;;;;;;5.07;2.20;;;11.00;99.90;;;;;;5095003;28;20044;-63
2023/06/03 01:54:26;;;;;;;4.68;1.83;;;11.00;99.90;;;;;;5093574;28;20036;-63
2023/06/03 01:56:53;;;;;;;5.78;2.10;;;10.90;99.90;;;;;;5093001;28;20036;-63
2023/06/03 01:59:23;;;;;;;4.13;1.75;;;10.90;99.90;;;;;;5094573;28;20036;-63
2023/06/03 02:01:50;;;;;;;4.30;1.83;;;10.90;99.90;;;;;;5083260;28;20042;-63
2023/06/03 02:04:16;;;;;;;4.45;1.67;;;10.90;99.90;;;;;;5092778;28;20047;-63
2023/06/03 02:06:50;;;;;;;6.25;1.60;;;10.80;99.90;;;;;;5094620;28;20036;-63
2023/06/03 02:09:16;;;;;;;4.97;1.67;;;10.80;99.90;;;;;;5093689;28;20036;-63
2023/06/03 02:11:43;;;;;;;4.60;1.90;;;10.80;99.90;;;;;;5092201;28;20080;-63
2023/06/03 02:14:10;;;;;;;5.68;1.65;;;10.80;99.90;;;;;;5093364;28;20074;-63
2023/06/03 02:16:36;;;;;;;4.35;1.80;;;10.80;99.90;;;;;;5094763;28;20115;-63
2023/06/03 02:19:04;;;;;;;4.35;2.00;;;10.70;99.90;;;;;;5092484;28;20449;-63
2023/06/03 02:21:30;;;;;;;4.55;1.73;;;10.70;99.90;;;;;;5094419;28;20067;-63
2023/06/03 02:23:56;;;;;;;3.85;1.67;;;10.70;99.90;;;;;;5093010;28;20457;-63
2023/06/03 02:26:22;;;;;;;5.38;2.10;;;10.70;99.90;;;;;;5092348;28;20105;-63
2023/06/03 02:28:47;;;;;;;4.10;1.30;;;10.70;99.90;;;;;;5113299;28;20070;-63
2023/06/03 02:31:13;;;;;;;4.35;1.60;;;10.60;99.90;;;;;;5113383;28;20040;-63
2023/06/03 02:33:39;;;;;;;5.50;1.75;;;10.70;99.90;;;;;;5113760;28;20051;-63
2023/06/03 02:36:06;;;;;;;4.05;1.38;;;10.60;99.90;;;;;;5109574;28;20056;-63
2023/06/03 02:38:32;;;;;;;3.80;1.50;;;10.60;99.90;;;;;;5092620;28;20389;-63
2023/06/03 02:40:57;;;;;;;6.13;1.83;;;10.60;99.90;;;;;;5094061;28;20131;-63
2023/06/03 02:43:23;;;;;;;3.67;1.48;;;10.60;99.90;;;;;;5092620;28;20048;-63
2023/06/03 02:45:49;;;;;;;3.33;1.40;;;10.50;99.90;;;;;;5092997;28;20083;-63
2023/06/03 02:48:14;;;;;;;5.55;1.80;;;10.50;99.90;;;;;;5092505;28;20123;-63
2023/06/03 02:50:40;;;;;;;5.63;2.22;;;10.50;99.90;;;;;;5093672;28;20130;-63
2023/06/03 02:53:07;;;;;;;8.05;2.67;;;10.50;99.90;;;;;;5093451;28;20532;-63
2023/06/03 02:55:33;;;;;;;5.95;2.58;;;10.40;99.90;;;;;;5093604;28;20048;-63
2023/06/03 02:57:59;;;;;;;5.07;2.10;;;10.40;99.90;;;;;;5092674;28;20089;-62
2023/06/03 03:00:25;;;;;;;6.15;2.28;;;10.40;99.90;;;;;;5109012;28;20093;-63
2023/06/03 03:02:52;;;;;;;5.68;1.90;;;10.40;99.90;;;;;;5093498;28;20469;-63
2023/06/03 03:05:19;;;;;;;5.10;1.80;;;10.40;99.90;;;;;;5109401;28;20105;-63
2023/06/03 03:07:46;;;;;;;4.80;1.60;;;10.40;99.90;;;;;;5092948;28;20107;-63
2023/06/03 03:10:11;;;;;;;5.93;1.70;;;10.40;99.90;;;;;;5092272;28;20514;-63
2023/06/03 03:12:37;;;;;;;4.30;1.60;;;10.40;99.90;;;;;;5093352;28;20048;-63
2023/06/03 03:15:03;;;;;;;3.85;1.63;;;10.50;99.90;;;;;;5093050;28;20047;-63
2023/06/03 03:17:29;;;;;;;4.80;1.80;;;10.50;99.90;;;;;;5109104;28;20180;-63
2023/06/03 03:19:54;;;;;;;6.75;2.17;;;10.50;99.90;;;;;;5093415;28;20043;-63
2023/06/03 03:22:20;;;;;;;9.60;2.28;;;10.50;99.90;;;;;;5092625;28;20050;-63
2023/06/03 03:24:50;;;;;;;6.20;2.55;;;10.50;99.90;;;;;;5093121;28;20119;-63
2023/06/03 03:27:16;;;;;;;4.75;2.00;;;10.50;99.90;;;;;;5093191;28;20036;-63
2023/06/03 03:29:45;;;;;;;6.75;2.67;;;10.50;99.90;;;;;;5108195;28;20516;-63
2023/06/03 03:32:11;;;;;;;4.53;2.22;;;10.50;99.90;;;;;;5091908;28;20081;-63
2023/06/03 03:34:38;;;;;;;6.35;2.60;;;10.50;99.90;;;;;;5093287;28;20497;-63
2023/06/03 03:37:04;;;;;;;4.82;1.92;;;10.50;99.90;;;;;;5108563;28;20121;-63
2023/06/03 03:39:30;;;;;;;5.93;2.17;;;10.50;99.90;;;;;;5108776;28;20090;-63
2023/06/03 03:41:56;;;;;;;4.68;1.80;;;10.50;99.90;;;;;;5108199;28;20044;-62
2023/06/03 03:44:23;;;;;;;6.22;2.05;;;10.50;99.90;;;;;;5108722;28;20040;-63
2023/06/03 03:47:03;;;;;;;6.25;1.83;;;10.50;99.90;;;;;;5092926;28;20040;-63
2023/06/03 03:49:31;;;;;;;4.53;1.67;;;10.50;99.90;;;;;;5073850;28;20079;-62
2023/06/03 03:52:03;;;;;;;5.35;1.85;;;10.50;99.90;;;;;;5092779;28;20039;-63
2023/06/03 03:54:29;;;;;;;5.20;2.20;;;10.50;99.90;;;;;;5092799;28;20163;-63
2023/06/03 03:56:55;;;;;;;5.75;2.35;;;10.50;99.90;;;;;;5106987;28;20044;-63
2023/06/03 03:59:21;;;;;;;5.18;2.13;;;10.50;99.90;;;;;;5091369;28;20039;-62
2023/06/03 04:01:48;;;;;;;5.05;2.08;;;10.60;99.90;;;;;;5092734;28;20127;-63
2023/06/03 04:04:40;;;;;;;5.97;2.38;;;10.60;99.90;;;;;;5091875;28;20043;-63
2023/06/03 04:07:08;;;;;;;4.90;1.88;;;10.60;99.90;;;;;;5091648;28;20050;-62
2023/06/03 04:09:36;;;;;;;5.20;2.13;;;10.60;99.90;;;;;;5108548;28;20086;-63
2023/06/03 04:12:06;;;;;;;4.95;2.00;;;10.60;99.90;;;;;;5091786;28;20039;-63
2023/06/03 04:14:51;;;;;;;4.00;1.45;;;10.60;99.90;;;;;;5108304;28;20479;-63
2023/06/03 04:17:21;;;;;;;6.38;2.08;;;10.60;99.90;;;;;;5091646;28;20058;-63
2023/06/03 04:19:48;;;;;;;5.60;1.63;;;10.60;99.90;;;;;;5074372;28;20036;-63
2023/06/03 04:22:21;;;;;;;3.42;1.25;;;10.60;99.90;;;;;;5092127;28;20040;-63
2023/06/03 04:24:54;;;;;;;4.95;1.77;;;10.60;99.90;;;;;;5108982;28;20032;-63
2023/06/03 04:27:20;;;;;;;3.85;1.60;;;10.60;99.90;;;;;;5112695;28;20035;-63
2023/06/03 04:29:45;;;;;;;3.90;1.55;;;10.60;99.90;;;;;;5111477;28;20127;-63
2023/06/03 04:32:11;;;;;;;3.70;1.85;;;10.60;99.90;;;;;;5111738;28;20534;-63
2023/06/03 04:34:49;;;;;;;6.40;1.55;;;10.60;99.90;;;;;;5111621;28;20552;-63
2023/06/03 04:37:15;;;;;;;3.38;1.58;;;10.60;99.90;;;;;;5112792;28;20110;-63
2023/06/03 04:39:41;;;;;;;4.22;1.67;;;10.60;99.90;;;;;;5110399;28;20075;-63
2023/06/03 04:42:10;;;;;;;4.25;1.85;;;10.60;99.90;;;;;;5111085;28;20126;-63
2023/06/03 04:44:38;;;;;;;5.43;2.00;;;10.70;99.90;;;;;;5112752;28;20119;-63
2023/06/03 04:47:05;;;;;;;4.65;1.52;;;10.70;99.90;;;;;;5110616;28;20042;-63
2023/06/03 04:49:32;;;;;;;5.18;1.40;;;10.70;99.90;;;;;;5094532;28;20044;-63
2023/06/03 04:51:58;;;;;;;4.00;1.85;;;10.70;99.90;;;;;;5112125;28;20039;-63
2023/06/03 04:54:24;;;;;;;4.40;1.70;;;10.70;99.90;;;;;;5111565;28;20032;-63
2023/06/03 04:56:50;;;;;;;5.63;1.63;;;10.80;99.90;;;;;;5112343;28;20047;-63
2023/06/03 04:59:16;;;;;;;5.05;1.92;;;10.80;99.90;;;;;;5111463;28;20038;-63
2023/06/03 05:01:44;;;;;;;4.07;1.58;;;10.90;99.90;;;;;;5093907;28;20044;-63
2023/06/03 05:04:13;;;;;;;4.20;1.60;;;11.00;99.90;;;;;;5111967;28;20549;-63
2023/06/03 05:06:39;;;;;;;4.20;1.40;;;11.20;99.90;;;;;;5111448;28;20036;-63
2023/06/03 05:09:05;;;;;;;7.05;1.95;;;11.20;99.90;;;;;;5114434;28;20030;-63
2023/06/03 05:11:31;;;;;;;4.30;1.60;;;11.40;99.90;;;;;;5116112;28;20050;-63
2023/06/03 05:13:57;;;;;;;4.75;1.70;;;11.50;99.90;;;;;;5115439;28;20098;-63
2023/06/03 05:16:23;;;;;;;7.60;1.85;;;11.60;99.90;;;;;;5115195;28;20071;-63
2023/06/03 05:18:49;;;;;;;5.65;1.65;;;11.70;99.90;;;;;;5116249;28;20043;-63
2023/06/03 05:21:19;;;;;;;7.85;2.33;;;11.90;99.90;;;;;;5114855;28;20468;-63
2023/06/03 05:23:45;;;;;;;5.30;1.58;;;12.00;99.90;;;;;;5115937;28;20574;-63
2023/06/03 05:26:11;;;;;;;4.47;1.90;;;12.10;99.90;;;;;;5116057;28;20053;-63
2023/06/03 05:28:36;;;;;;;4.43;1.70;;;12.10;99.90;;;;;;5115302;28;20032;-63
2023/06/03 05:31:02;;;;;;;7.30;1.63;;;12.20;99.90;;;;;;5114776;28;20043;-63
2023/06/03 05:33:29;;;;;;;4.28;2.03;;;12.30;99.90;;;;;;5114971;28;20555;-63
2023/06/03 05:35:55;;;;;;;6.15;1.73;;;12.40;99.90;;;;;;5114745;28;20087;-63
2023/06/03 05:38:21;;;;;;;5.47;1.65;;;12.50;99.90;;;;;;5114511;28;20096;-63
2023/06/03 05:40:49;;;;;;;5.38;1.55;;;12.60;99.90;;;;;;5115750;28;20042;-63
2023/06/03 05:43:15;;;;;;;2.90;1.30;;;12.70;99.90;;;;;;5114708;28;20093;-63
2023/06/03 05:45:42;;;;;;;3.65;1.70;;;12.80;99.90;;;;;;5114412;28;20495;-63
2023/06/03 05:48:08;;;;;;;5.45;2.13;;;12.80;99.90;;;;;;5116094;28;20042;-63
2023/06/03 05:50:38;;;;;;;4.40;1.40;;;13.00;99.90;;;;;;5114659;28;20032;-63
2023/06/03 05:53:05;;;;;;;6.32;1.63;;;13.00;99.90;;;;;;5114600;28;20071;-63
2023/06/03 05:55:31;;;;;;;4.35;1.50;;;13.10;99.90;;;;;;5113665;28;20043;-63
2023/06/03 05:57:57;;;;;;;4.32;1.73;;;13.20;99.90;;;;;;5115395;27;20062;-63
2023/06/03 06:00:22;;;;;;;5.20;1.60;;;13.20;99.90;;;;;;5114167;28;20044;-62
2023/06/03 06:02:48;;;;;;;3.95;1.60;;;13.30;99.90;;;;;;5114381;27;20039;-62
2023/06/03 06:05:14;;;;;;;3.95;1.67;;;13.40;99.90;;;;;;5115469;28;20040;-63
2023/06/03 06:07:40;;;;;;;5.20;1.75;;;13.50;99.90;;;;;;5113676;28;20092;-63
2023/06/03 06:10:06;;;;;;;5.68;1.38;;;13.70;99.90;;;;;;5113732;28;20044;-63
2023/06/03 06:12:32;;;;;;;5.82;1.50;;;13.70;99.90;;;;;;5113694;28;20051;-63
2023/06/03 06:14:57;;;;;;;3.55;1.38;;;13.80;99.90;;;;;;5107564;28;20392;-63
2023/06/03 06:17:23;;;;;;;4.75;1.70;;;13.90;99.90;;;;;;5093970;28;20032;-63
2023/06/03 06:19:49;;;;;;;4.20;1.30;;;13.90;99.90;;;;;;5102570;28;20404;-63
2023/06/03 06:22:15;;;;;;;4.60;1.42;;;14.10;99.90;;;;;;5107069;28;20040;-64
2023/06/03 06:24:42;;;;;;;3.88;1.38;;;14.20;99.90;;;;;;5104833;28;20073;-63
2023/06/03 06:27:08;;;;;;;5.15;1.52;;;14.30;99.90;;;;;;5094699;28;20036;-63
2023/06/03 06:29:34;;;;;;;4.60;1.27;;;14.40;99.90;;;;;;5094877;28;20032;-63
2023/06/03 06:32:00;;;;;;;7.20;1.80;;;14.50;99.90;;;;;;5093658;28;20035;-63
2023/06/03 06:34:31;;;;;;;8.75;1.92;;;14.70;99.90;;;;;;5094382;28;20047;-63
2023/06/03 06:36:58;;;;;;;4.45;1.70;;;14.80;99.90;;;;;;5076235;28;20035;-63
2023/06/03 06:39:33;;;;;;;3.38;1.15;;;15.00;99.90;;;;;;5075261;28;20048;-63
2023/06/03 06:42:17;;;;;;;3.58;1.38;;;15.10;99.90;;;;;;5098234;28;20114;-63
2023/06/03 06:44:48;;;;;;;5.78;1.80;;;15.10;99.90;;;;;;5111210;28;20118;-64
2023/06/03 06:47:21;;;;;;;3.45;1.40;;;15.00;99.90;;;;;;5110471;28;20571;-63
2023/06/03 06:49:48;;;;;;;3.45;1.50;;;14.80;99.90;;;;;;5110531;28;20464;-63
2023/06/03 06:52:14;;;;;;;4.05;1.45;;;14.70;99.90;;;;;;5109454;28;20043;-63
2023/06/03 06:54:40;;;;;;;7.22;1.58;;;14.60;99.90;;;;;;5109434;28;20092;-63
2023/06/03 06:57:06;;;;;;;4.00;1.52;;;14.50;99.90;;;;;;5111910;28;20044;-63
2023/06/03 06:59:32;;;;;;;3.47;1.63;;;14.40;99.90;;;;;;5109392;28;20051;-63
2023/06/03 07:01:58;;;;;;;4.40;1.40;;;14.30;99.90;;;;;;5110058;28;20036;-63
2023/06/03 07:04:24;;;;;;;4.35;1.67;;;14.30;99.90;;;;;;5111364;28;20452;-63
2023/06/03 07:06:50;;;;;;;3.42;1.55;;;14.30;99.90;;;;;;5109009;28;20038;-63
2023/06/03 07:09:16;;;;;;;7.03;1.52;;;14.30;99.90;;;;;;5108034;28;20268;-63
2023/06/03 07:11:46;;;;;;;4.28;1.50;;;14.20;99.90;;;;;;5109791;28;20142;-63
2023/06/03 07:14:13;;;;;;;3.65;1.40;;;14.30;99.90;;;;;;5092147;28;20059;-63
2023/06/03 07:16:41;;;;;;;4.47;1.50;;;14.20;99.90;;;;;;5110629;28;20044;-63
2023/06/03 07:19:06;;;;;;;6.00;1.48;;;14.20;99.90;;;;;;5110884;28;20047;-63
2023/06/03 07:21:33;;;;;;;5.20;1.45;;;14.30;99.90;;;;;;5099635;28;20048;-62
2023/06/03 07:23:59;;;;;;;5.68;1.77;;;14.40;99.90;;;;;;5101579;28;20046;-61
2023/06/03 07:26:27;;;;;;;5.40;1.75;;;14.60;99.90;;;;;;5093209;28;20043;-61
2023/06/03 07:28:56;;;;;;;5.60;1.50;;;14.90;99.90;;;;;;5108153;28;20051;-61
2023/06/03 07:31:22;;;;;;;3.20;1.35;;;15.00;99.90;;;;;;5108007;28;20089;-61
2023/06/03 07:33:55;;;;;;;4.13;1.60;;;15.20;99.90;;;;;;5105968;28;20040;-61
2023/06/03 07:36:22;;;;;;;5.68;1.63;;;15.30;99.90;;;;;;5078971;28;20052;-61
2023/06/03 07:39:06;;;;;;;4.72;1.63;;;15.50;99.90;;;;;;5109051;28;20039;-61
2023/06/03 07:41:44;;;;;;;3.85;1.55;;;15.70;99.20;;;;;;5107709;28;20130;-61
2023/06/03 07:44:15;;;;;;;4.93;1.60;;;15.90;99.70;;;;;;5109739;28;20047;-61
2023/06/03 07:46:48;;;;;;;4.70;1.50;;;16.00;99.30;;;;;;5108392;28;20035;-61
2023/06/03 07:49:16;;;;;;;4.72;1.30;;;16.10;97.80;;;;;;5090970;28;20051;-61
2023/06/03 07:51:47;;;;;;;3.15;1.25;;;16.20;96.90;;;;;;5109798;28;20443;-61
2023/06/03 07:54:14;;;;;;;4.10;1.27;;;16.30;95.90;;;;;;5109612;28;20043;-61
2023/06/03 07:56:41;;;;;;;5.85;1.63;;;16.40;96.10;;;;;;5104363;28;20386;-61
2023/06/03 07:59:10;;;;;;;3.92;1.55;;;16.50;95.80;;;;;;5109002;28;20140;-61
2023/06/03 08:01:36;;;;;;;3.53;1.13;;;16.60;96.00;;;;;;5108734;28;20039;-62
2023/06/03 08:04:20;;;;;;;3.97;1.50;;;16.70;95.80;;;;;;5102642;28;20040;-62
2023/06/03 08:06:49;;;;;;;3.20;1.10;;;16.80;94.50;;;;;;5092443;28;20032;-61
2023/06/03 08:09:25;;;;;;;4.50;1.30;;;16.90;94.60;;;;;;5094723;28;20043;-60
2023/06/03 08:11:51;;;;;;;4.07;1.20;;;17.00;94.90;;;;;;5094915;28;20062;-60
2023/06/03 08:14:20;;;;;;;2.97;1.33;;;17.00;94.80;;;;;;5091233;28;20040;-60
2023/06/03 08:16:45;;;;;;;2.97;1.40;;;17.00;94.20;;;;;;5091632;28;20530;-60
2023/06/03 08:19:13;;;;;;;3.33;1.02;;;17.10;93.70;;;;;;5100668;28;20067;-61
2023/06/03 08:21:39;;;;;;;4.72;1.30;;;17.10;93.50;;;;;;5102859;28;20507;-60
2023/06/03 08:24:05;;;;;;;6.63;1.58;;;17.10;93.10;;;;;;5085250;28;20047;-63
2023/06/03 08:26:31;;;;;;;3.55;1.40;;;17.20;92.80;;;;;;5091194;28;20036;-65
2023/06/03 08:28:56;;;;;;;3.90;1.20;;;17.30;92.40;;;;;;5091444;28;20046;-63
2023/06/03 08:31:22;;;;;;;2.92;1.17;;;17.40;92.40;;;;;;5091523;28;20047;-65
2023/06/03 08:33:47;;;;;;;3.25;1.38;;;17.40;91.80;;;;;;5074015;28;20053;-63
2023/06/03 08:36:13;;;;;;;4.35;1.42;;;17.40;91.00;;;;;;5105316;28;20047;-63
2023/06/03 08:38:40;;;;;;;1.70;0.90;;;17.50;90.40;;;;;;5095291;28;20081;-63
2023/06/03 08:41:06;;;;;;;3.30;1.00;;;17.50;89.90;;;;;;5096905;28;20040;-63
2023/06/03 08:43:44;;;;;;;3.20;1.02;;;17.50;88.80;;;;;;5086863;28;20052;-64
2023/06/03 08:46:26;;;;;;;3.65;1.30;;;17.60;88.00;;;;;;5087879;28;20094;-64
2023/06/03 08:49:03;;;;;;;2.92;1.00;;;17.70;87.90;;;;;;5088059;28;20556;-63
2023/06/03 08:51:38;;;;;;;5.13;1.40;;;17.80;85.00;;;;;;5089416;28;20767;-61
2023/06/03 08:54:14;;;;;;;;;;;17.90;85.30;;;;;;5103416;28;20565;-61
2023/06/03 08:56:49;;;;;;;3.95;1.15;;;17.90;83.60;;;;;;5108817;28;20375;-61
2023/06/03 08:59:23;;;;;;;3.78;1.05;;;18.00;83.00;;;;;;5109340;28;20040;-61
2023/06/03 09:01:51;;;;;;;;;;;18.00;82.20;;;;;;5108874;28;20040;-60
2023/06/03 09:04:16;;;;;;;2.42;0.90;;;18.00;80.40;;;;;;5109906;28;20403;-60
2023/06/03 09:06:44;;;;;;;3.78;1.27;;;18.10;80.40;;;;;;5102769;28;20036;-60
2023/06/03 09:09:11;;;;;;;4.13;1.08;;;18.20;78.20;;;;;;5102923;28;20036;-61
2023/06/03 09:11:38;;;;;;;3.08;1.13;;;18.30;78.40;;;;;;5105241;28;20041;-62
2023/06/03 09:14:04;;;;;;;4.03;0.95;;;18.30;75.60;;;;;;5088851;28;20048;-62
2023/06/03 09:16:32;;;;;;;5.88;1.05;;;18.30;73.60;;;;;;5088175;28;20121;-62
2023/06/03 09:18:57;;;;;;;3.58;1.02;;;18.30;72.90;;;;;;5092343;28;20048;-62
2023/06/03 09:21:23;;;;;;;4.70;1.13;;;18.30;74.20;;;;;;5102329;28;20377;-62
2023/06/03 09:23:51;;;;;;;3.10;1.10;;;18.50;73.00;;;;;;5082301;28;20078;-62
2023/06/03 09:26:17;;;;;;;3.65;1.45;;;18.50;72.10;;;;;;5096219;28;20408;-62
2023/06/03 09:28:44;;;;;;;2.88;0.93;;;18.50;70.40;;;;;;5097810;28;20042;-62
2023/06/03 09:31:10;;;;;;;4.07;1.17;;;18.60;70.00;;;;;;5099893;28;20064;-63
2023/06/03 09:33:37;;;;;;;3.28;1.00;;;18.60;68.80;;;;;;5099782;28;20543;-63
2023/06/03 09:36:13;;;;;;;3.20;1.20;;;18.60;69.70;;;;;;5086608;28;20407;-63
2023/06/03 09:38:46;;;;;;;3.22;1.20;;;18.70;68.90;;;;;;5089436;28;20044;-63
2023/06/03 09:41:14;;;;;;;2.78;1.00;;;18.80;69.40;;;;;;5106837;28;20035;-63
2023/06/03 09:43:50;;;;;;;2.88;1.02;;;18.80;68.80;;;;;;5106108;28;20044;-62
2023/06/03 09:46:16;;;;;;;4.45;1.40;;;18.90;68.80;;;;;;5108193;28;20046;-63
2023/06/03 09:48:42;;;;;;;2.90;1.05;;;19.10;69.10;;;;;;5107748;28;20032;-63
2023/06/03 09:51:07;;;;;;;3.83;1.20;;;19.00;67.40;;;;;;5109475;28;20510;-63
2023/06/03 09:53:33;;;;;;;2.80;0.98;;;19.00;67.40;;;;;;5095678;28;20155;-63
2023/06/03 09:56:19;;;;;;;3.05;1.27;;;19.00;66.40;;;;;;5110280;28;20126;-63
2023/06/03 09:58:45;;;;;;;4.05;0.98;;;18.90;65.80;;;;;;5093802;28;20044;-63
2023/06/03 10:01:11;;;;;;;4.03;1.27;;;18.90;66.10;;;;;;5110968;28;20043;-63
2023/06/03 10:03:37;;;;;;;3.88;1.27;;;19.00;66.30;;;;;;5108980;28;20089;-63
2023/06/03 10:06:30;;;;;;;5.25;1.00;;;19.00;65.60;;;;;;5112189;28;20074;-63
2023/06/03 10:08:56;;;;;;;2.53;1.00;;;18.90;64.30;;;;;;5099828;28;20055;-63
2023/06/03 10:11:23;;;;;;;4.53;1.40;;;19.00;65.60;;;;;;5094420;28;20051;-63
2023/06/03 10:14:07;;;;;;;4.05;1.17;;;19.00;65.60;;;;;;5109494;28;20158;-63
2023/06/03 10:16:32;;;;;;;4.37;1.87;;;19.00;65.30;;;;;;5090570;28;20047;-63
2023/06/03 10:18:58;;;;;;;6.25;1.83;;;18.90;64.80;;;;;;5092396;28;20424;-62
2023/06/03 10:21:27;;;;;;;3.45;1.55;;;18.90;64.90;;;;;;5093515;28;20044;-62
2023/06/03 10:23:56;;;;;;;4.07;1.20;;;18.90;64.90;;;;;;5090328;28;20110;-63
2023/06/03 10:26:22;;;;;;;3.25;1.20;;;19.00;64.90;;;;;;5090789;28;20044;-62
2023/06/03 10:28:50;;;;;;;5.13;1.40;;;19.00;64.20;;;;;;5101666;28;20048;-60
2023/06/03 10:31:16;;;;;;;2.03;0.90;;;19.00;63.60;;;;;;5093527;28;20075;-61
2023/06/03 10:33:42;;;;;;;4.90;1.17;;;19.20;64.30;;;;;;5111276;28;20839;-63
2023/06/03 10:36:09;;;;;;;3.22;1.15;;;19.30;65.10;;;;;;5111200;28;20559;-61
2023/06/03 10:38:38;;;;;;;2.92;1.15;;;19.30;65.40;;;;;;5110319;28;20092;-64
2023/06/03 10:41:04;;;;;;;3.67;1.02;;;19.40;64.80;;;;;;5110053;28;20084;-61
2023/06/03 10:43:31;;;;;;;5.03;1.42;;;19.40;64.30;;;;;;5110805;28;20074;-61
2023/06/03 10:45:58;;;;;;;2.45;0.90;;;19.50;64.20;;;;;;5111989;28;20437;-64
2023/06/03 10:48:26;;;;;;;2.55;1.00;;;19.50;63.80;;;;;;5104171;28;20388;-64
2023/06/03 10:51:16;;;;;;;2.92;1.13;;;19.60;64.20;;;;;;5108963;28;20043;-64
2023/06/03 10:53:54;;;;;;;2.97;1.15;;;19.60;64.70;;;;;;5110942;28;20043;-64
2023/06/03 10:56:35;;;;;;;4.05;1.20;;;19.60;63.70;;;;;;5114737;28;20425;-60
2023/06/03 10:59:07;;;;;;;3.13;1.20;;;19.60;63.00;;;;;;5112740;28;20044;-64
2023/06/03 11:01:58;;;;;;;3.22;0.98;;;19.60;63.90;;;;;;5113087;28;20035;-64
2023/06/03 11:04:28;;;;;;;3.13;1.10;;;19.90;62.20;;;;;;5114211;28;20418;-63
2023/06/03 11:06:54;;;;;;;2.88;1.20;;;19.90;60.60;;;;;;5110279;28;20114;-64
2023/06/03 11:09:30;;;;;;;3.05;0.90;;;20.00;60.90;;;;;;5114409;28;20453;-62
2023/06/03 11:12:03;;;;;;;3.97;1.20;;;20.10;61.00;;;;;;5111511;28;20094;-63
2023/06/03 11:14:42;;;;;;;2.80;0.90;;;20.20;60.90;;;;;;5081448;28;20332;-63
2023/06/03 11:17:10;;;;;;;2.35;0.93;;;20.30;60.40;;;;;;5096163;28;20071;-63
2023/06/03 11:19:46;;;;;;;2.75;1.00;;;20.30;61.00;;;;;;5113487;28;20050;-63
2023/06/03 11:22:35;;;;;;;3.90;1.17;;;20.40;61.70;;;;;;5102946;28;20388;-63
2023/06/03 11:25:00;;;;;;;2.30;0.80;;;20.40;60.00;;;;;;5092962;28;20435;-64
2023/06/03 11:27:28;;;;;;;4.47;1.10;;;20.30;59.80;;;;;;5092622;28;20036;-64
2023/06/03 11:29:56;;;;;;;3.78;0.98;;;20.20;58.60;;;;;;5091733;28;20156;-64
2023/06/03 11:32:23;;;;;;;2.55;1.08;;;20.20;59.20;;;;;;5093149;28;20044;-64
2023/06/03 11:34:58;;;;;;;2.45;1.20;;;20.20;59.10;;;;;;5091423;28;20040;-64
2023/06/03 11:37:52;;;;;;;2.38;1.20;;;20.20;59.20;;;;;;5095847;28;20387;-63
2023/06/03 11:40:20;;;;;;;3.90;1.00;;;20.40;59.20;;;;;;5112924;28;20039;-63
2023/06/03 11:42:53;;;;;;;2.47;1.08;;;20.50;60.00;;;;;;5113478;28;20039;-64
2023/06/03 11:45:19;;;;;;;2.80;0.98;;;20.50;58.30;;;;;;5113439;28;20057;-63
2023/06/03 11:47:51;;;;;;;3.53;1.27;;;20.60;59.00;;;;;;5107510;28;20074;-63
2023/06/03 11:50:18;;;;;;;3.50;1.00;;;20.60;59.50;;;;;;5101967;28;20487;-63
2023/06/03 11:52:43;;;;;;;3.92;1.10;;;20.70;58.80;;;;;;5107902;28;20480;-63
2023/06/03 11:55:10;;;;;;;2.35;0.90;;;20.70;58.00;;;;;;5091326;28;20101;-64
2023/06/03 11:57:37;;;;;;;2.28;0.82;;;20.70;59.00;;;;;;5093254;28;20084;-64
2023/06/03 12:00:08;;;;;;;3.20;0.85;;;20.80;59.60;;;;;;5093276;28;20071;-63
2023/06/03 12:02:37;;;;;;;3.13;0.98;;;20.80;58.90;;;;;;5074626;28;20477;-63
2023/06/03 12:05:07;;;;;;;3.15;1.13;;;21.00;59.60;;;;;;5092876;28;20059;-63
2023/06/03 12:07:33;;;;;;;3.35;1.15;;;21.00;59.10;;;;;;5091690;28;20040;-64
2023/06/03 12:09:58;;;;;;;4.20;1.48;;;21.10;58.60;;;;;;5092241;28;20034;-63
2023/06/03 12:12:24;;;;;;;3.55;1.30;;;21.20;57.80;;;;;;5091042;28;20135;-64
2023/06/03 12:14:50;;;;;;;4.90;1.48;;;21.20;57.80;;;;;;5091616;28;20464;-63
2023/06/03 12:17:18;;;;;;;7.72;1.23;;;21.00;57.10;;;;;;5090228;28;20101;-62
2023/06/03 12:19:46;;;;;;;2.90;1.15;;;20.90;57.50;;;;;;5091088;28;20043;-63
2023/06/03 12:22:13;;;;;;;2.20;0.93;;;21.00;58.60;;;;;;5084646;28;20039;-63
2023/06/03 12:24:41;;;;;;;3.88;1.10;;;21.10;59.60;;;;;;5091231;28;20110;-63
2023/06/03 12:27:17;;;;;;;2.35;0.98;;;21.20;59.00;;;;;;5094697;28;20036;-63
2023/06/03 12:29:47;;;;;;;4.22;1.15;;;21.10;58.80;;;;;;5095108;28;20063;-63
2023/06/03 12:32:13;;;;;;;4.65;1.55;;;21.10;59.60;;;;;;5098602;28;20484;-63
2023/06/03 12:34:39;;;;;;;4.03;1.27;;;21.10;60.10;;;;;;5095605;28;20028;-63
2023/06/03 12:37:06;;;;;;;3.42;1.15;;;21.10;60.30;;;;;;5074321;28;20036;-64
2023/06/03 12:39:43;;;;;;;3.38;1.17;;;21.10;61.30;;;;;;5101208;28;20032;-63
2023/06/03 12:42:10;;;;;;;3.13;1.23;;;21.00;61.50;;;;;;5105969;28;20028;-63
2023/06/03 12:44:47;;;;;;;3.45;1.15;;;20.90;61.80;;;;;;5107352;28;20028;-63
2023/06/03 12:47:14;;;;;;;4.72;1.40;;;20.90;63.00;;;;;;5096419;28;20054;-63
2023/06/03 12:49:40;;;;;;;4.80;1.40;;;20.90;62.10;;;;;;5090534;28;20432;-63
2023/06/03 12:52:20;;;;;;;4.07;1.23;;;20.90;61.50;;;;;;5098945;28;20040;-63
2023/06/03 12:54:47;;;;;;;2.03;0.98;;;20.90;62.50;;;;;;5089363;28;20036;-63